createdAt,value
2018-09-28T00:01:02.422Z,99.90
2018-09-28T00:03:31.813Z,99.90
2018-09-28T00:06:08.117Z,99.90
2018-09-28T00:08:37.589Z,99.90
2018-09-28T00:11:07.036Z,99.90
2018-09-28T00:13:36.659Z,99.90
2018-09-28T00:16:06.183Z,99.90
2018-09-28T00:18:35.579Z,99.90
2018-09-28T00:21:05.200Z,99.90
2018-09-28T00:23:34.668Z,99.90
2018-09-28T00:26:05.188Z,99.90
2018-09-28T00:28:34.706Z,99.90
2018-09-28T00:31:04.255Z,99.90
2018-09-28T00:33:33.721Z,99.90
2018-09-28T00:40:59.233Z,99.90
2018-09-28T00:43:28.630Z,99.90
2018-09-28T00:45:58.035Z,99.90
2018-09-28T00:48:27.577Z,99.90
2018-09-28T00:50:57.060Z,99.90
2018-09-28T00:53:26.600Z,99.90
2018-09-28T00:55:56.010Z,99.90
2018-09-28T00:58:25.530Z,99.90
2018-09-28T01:00:55.102Z,99.90
2018-09-28T01:03:24.683Z,99.90
2018-09-28T01:05:54.239Z,99.90
2018-09-28T01:08:23.707Z,99.90
2018-09-28T01:10:53.262Z,99.90
2018-09-28T01:13:22.790Z,99.90
2018-09-28T01:15:52.378Z,99.90
2018-09-28T01:18:21.702Z,99.90
2018-09-28T01:20:51.106Z,99.90
2018-09-28T01:23:20.704Z,99.90
2018-09-28T01:25:50.178Z,99.90
2018-09-28T01:33:14.263Z,99.90
2018-09-28T01:35:43.760Z,99.90
2018-09-28T01:38:13.282Z,99.90
2018-09-28T01:40:42.901Z,99.90
2018-09-28T01:43:12.466Z,99.90
2018-09-28T01:45:41.938Z,99.90
2018-09-28T01:48:11.463Z,99.90
2018-09-28T01:50:41.017Z,99.90
2018-09-28T01:53:10.748Z,99.90
2018-09-28T01:55:40.250Z,99.90
2018-09-28T01:58:09.837Z,99.90
2018-09-28T02:00:39.278Z,99.90
2018-09-28T02:03:08.740Z,99.90
2018-09-28T02:05:38.836Z,99.90
2018-09-28T02:08:08.353Z,99.90
2018-09-28T02:10:37.838Z,99.90
2018-09-28T02:13:07.236Z,99.90
2018-09-28T02:15:36.643Z,99.90
2018-09-28T02:18:06.216Z,99.90
2018-09-28T02:20:35.629Z,99.90
2018-09-28T02:23:05.438Z,99.90
2018-09-28T02:25:34.964Z,99.90
2018-09-28T02:28:04.338Z,99.90
2018-09-28T02:30:33.999Z,99.90
2018-09-28T02:33:03.465Z,99.90
2018-09-28T02:35:33.096Z,99.90
2018-09-28T02:38:02.585Z,99.90
2018-09-28T02:40:31.938Z,99.90
2018-09-28T02:43:01.418Z,99.90
2018-09-28T02:45:30.988Z,99.90
2018-09-28T02:48:00.617Z,99.90
2018-09-28T02:50:30.168Z,99.90
2018-09-28T02:53:00.617Z,99.90
2018-09-28T02:55:30.110Z,99.90
2018-09-28T02:58:00.518Z,99.90
2018-09-28T03:00:30.045Z,99.90
2018-09-28T03:03:00.474Z,99.90
2018-09-28T03:05:29.983Z,99.90
2018-09-28T03:08:02.459Z,99.90
2018-09-28T03:10:32.009Z,99.90
2018-09-28T03:13:01.486Z,99.90
2018-09-28T03:15:31.007Z,99.90
2018-09-28T03:18:00.614Z,99.90
2018-09-28T03:20:29.994Z,99.90
2018-09-28T03:22:59.274Z,99.90
2018-09-28T03:25:28.641Z,99.90
2018-09-28T03:27:58.104Z,99.90
2018-09-28T03:30:27.634Z,99.90
2018-09-28T03:32:57.108Z,99.90
2018-09-28T03:35:26.592Z,99.90
2018-09-28T03:37:56.177Z,99.90
2018-09-28T03:40:25.504Z,99.90
2018-09-28T03:42:55.024Z,99.90
2018-09-28T03:45:24.468Z,99.90
2018-09-28T03:47:54.000Z,99.90
2018-09-28T03:50:23.511Z,99.90
2018-09-28T03:52:52.992Z,99.90
2018-09-28T03:55:22.551Z,99.90
2018-09-28T03:57:52.040Z,99.90
2018-09-28T04:00:21.632Z,99.90
2018-09-28T04:02:51.261Z,99.90
2018-09-28T04:05:20.792Z,99.90
2018-09-28T04:07:50.189Z,99.90
2018-09-28T04:10:20.456Z,99.90
2018-09-28T04:12:49.743Z,99.90
2018-09-28T04:15:19.332Z,99.90
2018-09-28T04:17:48.719Z,99.90
2018-09-28T04:20:18.244Z,99.90
2018-09-28T04:22:47.661Z,99.90
2018-09-28T04:25:17.184Z,99.90
2018-09-28T04:27:46.809Z,99.90
2018-09-28T04:30:16.336Z,99.90
2018-09-28T04:32:47.508Z,99.90
2018-09-28T04:35:16.851Z,99.90
2018-09-28T04:37:46.323Z,99.90
2018-09-28T04:40:15.778Z,99.90
2018-09-28T04:42:45.179Z,99.90
2018-09-28T04:45:14.705Z,99.90
2018-09-28T04:47:44.123Z,99.90
2018-09-28T04:50:13.603Z,99.90
2018-09-28T04:52:43.119Z,99.90
2018-09-28T04:55:12.776Z,99.90
2018-09-28T04:57:42.319Z,99.90
2018-09-28T05:00:11.858Z,99.90
2018-09-28T05:02:41.320Z,99.90
2018-09-28T05:05:11.444Z,99.90
2018-09-28T05:07:40.912Z,99.90
2018-09-28T05:10:10.317Z,99.90
2018-09-28T05:12:42.560Z,99.90
2018-09-28T05:15:11.999Z,99.90
2018-09-28T05:17:41.484Z,99.90
2018-09-28T05:20:10.967Z,99.90
2018-09-28T05:22:40.825Z,99.90
2018-09-28T05:25:10.380Z,99.90
2018-09-28T05:27:39.844Z,99.90
2018-09-28T05:30:09.136Z,99.90
2018-09-28T05:32:38.639Z,99.90
2018-09-28T05:35:07.745Z,99.90
2018-09-28T05:44:37.295Z,99.90
2018-09-28T05:47:06.702Z,99.90
2018-09-28T05:49:36.067Z,99.90
2018-09-28T05:52:05.388Z,99.90
2018-09-28T05:54:34.859Z,99.90
2018-09-28T05:57:04.303Z,99.90
2018-09-28T05:59:39.032Z,99.90
2018-09-28T06:02:13.628Z,99.90
2018-09-28T06:04:48.344Z,99.90
2018-09-28T06:07:17.832Z,99.90
2018-09-28T06:09:48.223Z,99.90
2018-09-28T06:12:17.699Z,99.90
2018-09-28T06:14:47.323Z,99.90
2018-09-28T06:17:16.819Z,99.90
2018-09-28T06:19:46.340Z,99.90
2018-09-28T06:22:15.796Z,99.90
2018-09-28T06:24:45.232Z,99.90
2018-09-28T06:27:14.552Z,99.90
2018-09-28T06:29:44.074Z,99.90
2018-09-28T06:32:13.879Z,99.90
2018-09-28T06:34:43.323Z,99.90
2018-09-28T06:37:12.830Z,99.90
2018-09-28T06:39:42.276Z,99.90
2018-09-28T06:42:11.788Z,99.90
2018-09-28T06:44:41.210Z,99.90
2018-09-28T06:47:10.696Z,99.90
2018-09-28T06:49:40.138Z,99.90
2018-09-28T06:52:09.630Z,98.00
2018-09-28T06:54:38.964Z,94.80
2018-09-28T06:57:08.398Z,87.00
2018-09-28T06:59:37.851Z,68.90
2018-09-28T07:02:07.279Z,60.20
2018-09-28T07:04:36.715Z,58.50
2018-09-28T07:07:06.056Z,56.70
2018-09-28T07:09:35.349Z,53.60
2018-09-28T07:12:05.790Z,51.00
2018-09-28T07:14:35.184Z,50.40
2018-09-28T07:17:10.085Z,50.10
2018-09-28T07:19:39.727Z,45.80
2018-09-28T07:27:03.772Z,41.40
2018-09-28T07:29:33.240Z,39.10
2018-09-28T07:32:02.765Z,37.50
2018-09-28T07:34:32.090Z,37.90
2018-09-28T07:37:01.803Z,38.90
2018-09-28T07:39:31.171Z,38.60
2018-09-28T07:42:01.831Z,42.00
2018-09-28T07:44:31.492Z,44.30
2018-09-28T07:47:01.523Z,47.00
2018-09-28T07:49:30.980Z,46.30
2018-09-28T07:52:01.433Z,54.50
2018-09-28T07:54:30.884Z,54.30
2018-09-28T07:57:00.650Z,55.00
2018-09-28T07:59:29.929Z,59.20
2018-09-28T08:01:59.255Z,64.70
2018-09-28T08:04:28.540Z,62.70
2018-09-28T08:06:57.932Z,65.00
2018-09-28T08:09:27.303Z,72.20
2018-09-28T08:11:56.700Z,69.40
2018-09-28T08:14:28.716Z,64.20
2018-09-28T08:17:01.092Z,65.80
2018-09-28T08:19:30.495Z,66.60
2018-09-28T08:21:59.895Z,67.00
2018-09-28T08:24:30.006Z,64.90
2018-09-28T08:26:59.328Z,65.90
2018-09-28T08:29:28.793Z,62.20
2018-09-28T08:31:58.291Z,69.20
2018-09-28T08:34:27.595Z,64.60
2018-09-28T08:36:57.187Z,68.00
2018-09-28T08:39:28.891Z,74.30
2018-09-28T08:41:58.495Z,72.80
2018-09-28T08:44:27.815Z,69.10
2018-09-28T08:46:57.268Z,58.40
2018-09-28T08:49:26.721Z,61.80
2018-09-28T08:51:56.451Z,62.00
2018-09-28T08:54:25.779Z,71.30
2018-09-28T08:56:55.160Z,66.80
2018-09-28T08:59:24.540Z,61.30
2018-09-28T09:01:53.882Z,61.20
2018-09-28T09:04:23.481Z,63.80
2018-09-28T09:06:52.859Z,60.60
2018-09-28T09:09:22.260Z,61.10
2018-09-28T09:11:51.709Z,57.40
2018-09-28T09:14:21.055Z,59.70
2018-09-28T09:16:50.444Z,63.40
2018-09-28T09:19:19.908Z,55.70
2018-09-28T09:21:49.364Z,58.80
2018-09-28T09:24:18.749Z,58.60
2018-09-28T09:26:48.039Z,58.30
2018-09-28T09:29:17.532Z,58.70
2018-09-28T09:31:47.003Z,64.50
2018-09-28T09:34:16.423Z,61.30
2018-09-28T09:38:42.230Z,58.60
2018-09-28T09:41:11.579Z,55.00
2018-09-28T09:43:41.087Z,56.30
2018-09-28T09:46:10.539Z,56.40
2018-09-28T09:48:40.003Z,57.20
2018-09-28T09:51:09.564Z,55.70
2018-09-28T09:53:39.226Z,57.80
2018-09-28T09:56:08.680Z,53.90
2018-09-28T09:58:38.070Z,52.30
2018-09-28T10:01:08.441Z,58.60
2018-09-28T10:03:43.164Z,58.10
2018-09-28T10:06:12.669Z,58.50
2018-09-28T10:08:42.106Z,55.10
2018-09-28T10:11:18.035Z,56.40
2018-09-28T10:13:47.467Z,53.90
2018-09-28T10:16:16.972Z,51.20
2018-09-28T10:18:46.452Z,53.00
2018-09-28T10:21:15.975Z,56.20
2018-09-28T10:23:45.656Z,50.40
2018-09-28T10:26:15.912Z,51.90
2018-09-28T10:28:45.384Z,52.80
2018-09-28T10:31:14.755Z,52.60
2018-09-28T10:33:44.298Z,48.50
2018-09-28T10:36:14.129Z,51.90
2018-09-28T10:38:43.555Z,50.90
2018-09-28T10:41:13.011Z,55.50
2018-09-28T10:43:42.427Z,56.50
2018-09-28T10:46:12.013Z,54.00
2018-09-28T10:48:41.642Z,56.10
2018-09-28T10:51:11.159Z,54.90
2018-09-28T10:53:40.555Z,60.20
2018-09-28T10:56:09.944Z,58.00
2018-09-28T10:58:39.324Z,56.10
2018-09-28T11:01:08.877Z,53.40
2018-09-28T11:03:38.396Z,50.10
2018-09-28T11:06:07.936Z,48.00
2018-09-28T11:08:37.343Z,51.90
2018-09-28T11:11:07.145Z,49.80
2018-09-28T11:13:36.561Z,48.30
2018-09-28T11:16:05.969Z,51.30
2018-09-28T11:18:35.324Z,52.70
2018-09-28T11:21:04.703Z,51.10
2018-09-28T11:23:33.991Z,48.10
2018-09-28T11:26:03.283Z,49.20
2018-09-28T11:28:32.761Z,48.10
2018-09-28T11:31:02.425Z,51.30
2018-09-28T11:33:31.818Z,51.20
2018-09-28T11:41:00.200Z,51.70
2018-09-28T11:43:30.488Z,46.30
2018-09-28T11:46:00.016Z,44.70
2018-09-28T11:48:29.359Z,44.90
2018-09-28T11:50:58.823Z,49.50
2018-09-28T11:53:28.274Z,47.80
2018-09-28T11:55:57.660Z,48.80
2018-09-28T11:58:27.115Z,46.70
2018-09-28T12:00:56.580Z,43.20
2018-09-28T12:03:26.158Z,40.90
2018-09-28T12:05:55.617Z,42.80
2018-09-28T12:08:25.009Z,41.80
2018-09-28T12:10:54.511Z,39.20
2018-09-28T12:13:24.055Z,39.50
2018-09-28T12:15:53.528Z,38.50
2018-09-28T12:18:23.278Z,39.60
2018-09-28T12:20:52.737Z,42.20
2018-09-28T12:23:22.240Z,39.90
2018-09-28T12:25:51.637Z,38.10
2018-09-28T12:28:21.059Z,39.80
2018-09-28T12:30:50.511Z,41.20
2018-09-28T12:33:19.925Z,35.60
2018-09-28T12:35:49.406Z,33.40
2018-09-28T12:38:18.844Z,32.40
2018-09-28T12:40:48.204Z,32.70
2018-09-28T12:43:17.736Z,34.30
2018-09-28T12:47:42.619Z,33.00
2018-09-28T12:50:12.100Z,34.30
2018-09-28T12:52:41.463Z,34.30
2018-09-28T12:55:10.767Z,35.70
2018-09-28T12:57:40.140Z,35.70
2018-09-28T13:00:09.703Z,38.20
2018-09-28T13:02:39.230Z,36.40
2018-09-28T13:05:08.567Z,36.70
2018-09-28T13:07:38.088Z,36.90
2018-09-28T13:10:07.832Z,38.20
2018-09-28T13:12:37.160Z,36.00
2018-09-28T13:15:13.334Z,35.20
2018-09-28T13:17:42.615Z,34.30
2018-09-28T13:20:12.106Z,34.50
2018-09-28T13:22:41.575Z,31.90
2018-09-28T13:25:10.887Z,31.30
2018-09-28T13:27:40.776Z,31.70
2018-09-28T13:30:11.757Z,30.50
2018-09-28T13:32:41.291Z,31.70
2018-09-28T13:35:10.635Z,32.20
2018-09-28T13:37:40.085Z,31.60
2018-09-28T13:40:10.404Z,31.60
2018-09-28T13:42:39.932Z,32.40
2018-09-28T13:45:09.254Z,32.50
2018-09-28T13:47:38.941Z,33.30
2018-09-28T13:50:08.373Z,32.00
2018-09-28T13:52:37.876Z,33.00
2018-09-28T13:55:08.131Z,31.40
2018-09-28T13:57:37.587Z,31.30
2018-09-28T14:00:07.744Z,33.50
2018-09-28T14:02:37.104Z,29.90
2018-09-28T14:05:06.428Z,30.60
2018-09-28T14:07:35.875Z,30.70
2018-09-28T14:10:05.471Z,31.70
2018-09-28T14:12:34.804Z,30.70
2018-09-28T14:15:04.180Z,31.30
2018-09-28T14:17:33.657Z,31.10
2018-09-28T14:20:03.167Z,29.90
2018-09-28T14:22:32.665Z,29.30
2018-09-28T14:25:02.982Z,30.20
2018-09-28T14:27:32.307Z,31.80
2018-09-28T14:30:01.766Z,31.00
2018-09-28T14:32:31.953Z,33.50
2018-09-28T14:35:01.493Z,33.50
2018-09-28T14:37:30.931Z,32.80
2018-09-28T14:40:00.328Z,31.80
2018-09-28T14:42:31.027Z,32.50
2018-09-28T14:45:00.758Z,32.80
2018-09-28T14:47:30.256Z,32.70
2018-09-28T14:49:59.650Z,31.30
2018-09-28T14:52:29.072Z,31.60
2018-09-28T14:54:58.505Z,31.60
2018-09-28T14:57:27.954Z,32.10
2018-09-28T14:59:57.411Z,33.10
2018-09-28T15:02:26.964Z,37.50
2018-09-28T15:04:56.310Z,36.60
2018-09-28T15:07:26.061Z,39.00
2018-09-28T15:09:55.489Z,39.30
2018-09-28T15:12:24.988Z,41.00
2018-09-28T15:14:54.428Z,39.20
2018-09-28T15:17:23.900Z,38.70
2018-09-28T15:19:53.368Z,38.30
2018-09-28T15:22:22.729Z,39.20
2018-09-28T15:24:52.126Z,40.40
2018-09-28T15:27:21.628Z,41.10
2018-09-28T15:29:50.967Z,40.10
2018-09-28T15:32:20.360Z,41.60
2018-09-28T15:34:49.683Z,40.40
2018-09-28T15:37:19.149Z,40.90
2018-09-28T15:39:48.497Z,39.90
2018-09-28T15:42:17.847Z,40.30
2018-09-28T15:44:47.191Z,39.80
2018-09-28T15:47:16.666Z,41.00
2018-09-28T15:49:46.147Z,38.80
2018-09-28T15:52:15.497Z,39.70
2018-09-28T15:54:45.016Z,40.60
2018-09-28T15:57:14.499Z,39.30
2018-09-28T15:59:43.883Z,39.80
2018-09-28T16:02:13.340Z,39.30
2018-09-28T16:04:42.700Z,42.10
2018-09-28T16:07:12.203Z,41.40
2018-09-28T16:09:41.743Z,41.50
2018-09-28T16:12:11.391Z,41.60
2018-09-28T16:14:40.761Z,41.90
2018-09-28T16:17:10.244Z,43.70
2018-09-28T16:19:39.747Z,43.30
2018-09-28T16:22:09.229Z,45.10
2018-09-28T16:24:38.734Z,46.70
2018-09-28T16:27:08.513Z,46.60
2018-09-28T16:29:38.052Z,49.60
2018-09-28T16:32:07.702Z,49.10
2018-09-28T16:34:37.227Z,49.60
2018-09-28T16:37:07.275Z,49.60
2018-09-28T16:39:36.911Z,50.90
2018-09-28T16:42:06.691Z,52.30
2018-09-28T16:44:36.188Z,53.90
2018-09-28T16:47:05.911Z,53.70
2018-09-28T16:49:35.414Z,55.60
2018-09-28T16:52:05.005Z,57.60
2018-09-28T16:54:34.576Z,56.90
2018-09-28T16:57:04.229Z,56.10
2018-09-28T16:59:33.671Z,57.00
2018-09-28T17:02:03.788Z,57.20
2018-09-28T17:04:33.323Z,57.70
2018-09-28T17:07:03.704Z,59.50
2018-09-28T17:09:33.040Z,60.00
2018-09-28T17:12:02.415Z,62.60
2018-09-28T17:14:32.064Z,69.80
2018-09-28T17:17:01.696Z,78.80
2018-09-28T17:19:32.288Z,84.60
2018-09-28T17:22:01.788Z,89.80
2018-09-28T17:24:31.103Z,86.40
2018-09-28T17:27:00.453Z,83.60
2018-09-28T17:29:29.936Z,84.30
2018-09-28T17:31:59.415Z,77.90
2018-09-28T17:34:28.960Z,86.30
2018-09-28T17:36:58.403Z,81.40
2018-09-28T17:39:27.742Z,81.20
2018-09-28T17:41:57.103Z,86.50
2018-09-28T17:44:26.561Z,92.40
2018-09-28T17:46:55.995Z,95.30
2018-09-28T17:49:25.423Z,97.60
2018-09-28T17:51:54.780Z,98.70
2018-09-28T17:54:24.116Z,99.80
2018-09-28T17:56:53.509Z,99.80
2018-09-28T17:59:23.805Z,99.90
2018-09-28T18:01:53.293Z,99.90
2018-09-28T18:04:22.631Z,99.90
2018-09-28T18:06:52.291Z,99.90
2018-09-28T18:09:21.783Z,99.90
2018-09-28T18:11:52.502Z,99.90
2018-09-28T18:14:22.060Z,99.90
2018-09-28T18:16:51.491Z,99.90
2018-09-28T18:19:20.831Z,99.90
2018-09-28T18:21:50.189Z,99.90
2018-09-28T18:24:19.570Z,99.90
2018-09-28T18:26:49.044Z,99.90
2018-09-28T18:29:18.486Z,99.90
2018-09-28T18:31:47.965Z,99.90
2018-09-28T18:34:17.423Z,99.90
2018-09-28T18:36:47.048Z,99.90
2018-09-28T18:39:16.525Z,99.90
2018-09-28T18:41:46.022Z,99.90
2018-09-28T18:44:15.361Z,99.90
2018-09-28T18:46:44.618Z,99.90
2018-09-28T18:49:14.166Z,99.90
2018-09-28T18:51:43.651Z,99.90
2018-09-28T18:54:13.111Z,99.90
2018-09-28T18:56:42.540Z,99.90
2018-09-28T18:59:12.016Z,99.90
2018-09-28T19:01:43.575Z,99.90
2018-09-28T19:04:12.979Z,99.90
2018-09-28T19:06:42.396Z,99.90
2018-09-28T19:09:12.483Z,99.90
2018-09-28T19:11:42.448Z,99.90
2018-09-28T19:14:11.864Z,99.90
2018-09-28T19:16:41.155Z,99.90
2018-09-28T19:19:10.520Z,99.90
2018-09-28T19:21:39.937Z,99.90
2018-09-28T19:24:09.288Z,99.90
2018-09-28T19:26:38.837Z,99.90
2018-09-28T19:29:08.331Z,99.90
2018-09-28T19:31:37.731Z,99.90
2018-09-28T19:34:07.176Z,99.90
2018-09-28T19:36:36.471Z,99.90
2018-09-28T19:39:08.120Z,99.90
2018-09-28T19:41:38.040Z,99.90
2018-09-28T19:44:07.547Z,99.90
2018-09-28T19:46:36.884Z,99.90
2018-09-28T19:49:06.475Z,99.90
2018-09-28T19:51:36.344Z,99.90
2018-09-28T19:54:05.733Z,99.90
2018-09-28T19:56:35.198Z,99.90
2018-09-28T19:59:04.580Z,99.90
2018-09-28T20:01:34.024Z,99.90
2018-09-28T20:04:05.216Z,99.90
2018-09-28T20:06:34.619Z,99.90
2018-09-28T20:09:06.524Z,99.90
2018-09-28T20:11:36.225Z,99.90
2018-09-28T20:14:05.776Z,99.90
2018-09-28T20:16:35.169Z,99.90
2018-09-28T20:19:04.681Z,99.90
2018-09-28T20:21:34.213Z,99.90
2018-09-28T20:24:04.602Z,99.90
2018-09-28T20:26:33.987Z,99.90
2018-09-28T20:29:04.436Z,99.90
2018-09-28T20:31:33.887Z,99.90
2018-09-28T20:34:03.415Z,99.90
2018-09-28T20:36:32.791Z,99.90
2018-09-28T20:39:02.241Z,99.90
2018-09-28T20:41:31.707Z,99.90
2018-09-28T20:44:01.036Z,99.90
2018-09-28T20:46:30.387Z,99.90
2018-09-28T20:48:59.761Z,99.90
2018-09-28T20:51:29.139Z,99.90
2018-09-28T20:53:58.696Z,99.90
2018-09-28T20:56:27.980Z,99.90
2018-09-28T20:58:57.420Z,99.90
2018-09-28T21:01:27.075Z,99.90
2018-09-28T21:03:56.571Z,99.90
2018-09-28T21:06:25.903Z,99.90
2018-09-28T21:08:55.358Z,99.90
2018-09-28T21:11:24.768Z,99.90
2018-09-28T21:13:54.057Z,99.90
2018-09-28T21:16:23.379Z,99.90
2018-09-28T21:18:52.910Z,99.90
2018-09-28T21:21:22.364Z,99.90
2018-09-28T21:23:51.820Z,99.90
2018-09-28T21:26:21.973Z,99.90
2018-09-28T21:28:51.355Z,99.90
2018-09-28T21:31:20.755Z,99.90
2018-09-28T21:33:50.077Z,99.90
2018-09-28T21:36:19.337Z,99.90
2018-09-28T21:38:48.771Z,99.90
2018-09-28T21:41:18.282Z,99.90
2018-09-28T21:43:47.739Z,99.90
2018-09-28T21:46:17.153Z,99.90
2018-09-28T21:48:46.510Z,99.90
2018-09-28T21:51:16.025Z,99.90
2018-09-28T21:53:45.447Z,99.90
2018-09-28T21:56:14.815Z,99.90
2018-09-28T21:58:44.274Z,99.90
2018-09-28T22:01:17.484Z,99.90
2018-09-28T22:03:47.907Z,99.90
2018-09-28T22:06:17.391Z,99.90
2018-09-28T22:08:46.699Z,99.90
2018-09-28T22:11:16.123Z,99.90
2018-09-28T22:13:45.526Z,99.90
2018-09-28T22:16:14.827Z,99.90
2018-09-28T22:18:44.172Z,99.90
2018-09-28T22:21:13.555Z,99.90
2018-09-28T22:23:43.215Z,99.90
2018-09-28T22:26:12.661Z,99.90
2018-09-28T22:31:23.915Z,99.90
2018-09-28T22:33:53.389Z,99.90
2018-09-28T22:36:22.832Z,99.90
2018-09-28T22:38:52.327Z,99.90
2018-09-28T22:41:21.775Z,99.90
2018-09-28T22:43:51.364Z,99.90
2018-09-28T22:46:20.719Z,99.90
2018-09-28T22:48:50.215Z,99.90
2018-09-28T22:51:19.539Z,99.90
2018-09-28T22:53:48.796Z,99.90
2018-09-28T22:56:18.072Z,99.90
2018-09-28T22:58:47.369Z,99.90
2018-09-28T23:01:16.652Z,99.90
2018-09-28T23:03:46.084Z,99.90
2018-09-28T23:06:15.516Z,99.90
2018-09-28T23:08:45.003Z,99.90
2018-09-28T23:11:14.335Z,99.90
2018-09-28T23:13:43.755Z,99.90
2018-09-28T23:16:13.392Z,99.90
2018-09-28T23:18:42.800Z,99.90
2018-09-28T23:21:12.257Z,99.90
2018-09-28T23:23:41.679Z,99.90
2018-09-28T23:26:11.080Z,99.90
2018-09-28T23:28:43.432Z,99.90
2018-09-28T23:31:12.735Z,99.90
2018-09-28T23:33:41.971Z,99.90
2018-09-28T23:36:11.247Z,99.90
2018-09-28T23:38:40.607Z,99.90
2018-09-28T23:41:10.074Z,99.90
2018-09-28T23:43:39.472Z,99.90
2018-09-28T23:46:08.943Z,99.90
2018-09-28T23:48:38.379Z,99.90
2018-09-28T23:51:09.486Z,99.90
2018-09-28T23:53:39.002Z,99.90
2018-09-28T23:56:08.466Z,99.90
2018-09-28T23:58:37.893Z,99.90
